Sherbro International Airport

Jump to: basic info | weather | comments

Related pages: nearby airports | nearby navaids | notams | map

Basic information (top)

Codes: BTE GFBN
Location: lon 7.532420, lat -12.518900, elev 14 ft / 4 m msl
Status: medium_airport
Scheduled airline service: yes
Links: Wikipedia Mobile

Weather (top)

Current conditions for Lungi International Airport 77nm (142km) NNW (rec'd 2015/04/01 12:00Z):

GFLL 011200Z 30006KT 9999 FEW018 29/20 Q1012

Airport forecast for Lungi International Airport 77nm (142km) NNW (rec'd 2015/04/01 18:00Z):

TAF GFLL 011600Z 0118/0224 300008KT 9999 NSW 
      TEMPO 0122/0203 27010 9999 BKN012 PROB30 
      TEMPO 0207/0212 008KT 4000 BR BKN011 
      TEMPO 0213/0218 27008KT 9999 BKN010

Latest comments (top)

No comments yet for Sherbro International Airport

More... (top)

See also NOTAMs and nearby airports and navaids, or visit the Sherbro International Airport page at the main OurAirports website..